sensor_id;sensor_type;location;lat;lon;timestamp;P1;durP1;ratioP1;P2;durP2;ratioP2
21621;SDS011;10973;46.706;12.340;2023-09-19T00:00:22;1.37;;;1.00;;
21621;SDS011;10973;46.706;12.340;2023-09-19T00:02:56;1.10;;;1.10;;
21621;SDS011;10973;46.706;12.340;2023-09-19T00:05:25;1.40;;;1.10;;
21621;SDS011;10973;46.706;12.340;2023-09-19T00:07:57;1.30;;;1.20;;
21621;SDS011;10973;46.706;12.340;2023-09-19T00:10:25;1.30;;;1.30;;
21621;SDS011;10973;46.706;12.340;2023-09-19T00:12:55;1.70;;;1.07;;
21621;SDS011;10973;46.706;12.340;2023-09-19T00:15:22;1.20;;;1.10;;
21621;SDS011;10973;46.706;12.340;2023-09-19T00:17:51;1.17;;;1.13;;
21621;SDS011;10973;46.706;12.340;2023-09-19T00:20:19;0.80;;;0.80;;
21621;SDS011;10973;46.706;12.340;2023-09-19T00:22:50;2.40;;;1.10;;
21621;SDS011;10973;46.706;12.340;2023-09-19T00:25:17;2.30;;;1.00;;
21621;SDS011;10973;46.706;12.340;2023-09-19T00:27:46;1.00;;;1.00;;
21621;SDS011;10973;46.706;12.340;2023-09-19T00:30:14;1.10;;;1.07;;
21621;SDS011;10973;46.706;12.340;2023-09-19T00:32:42;1.03;;;1.00;;
21621;SDS011;10973;46.706;12.340;2023-09-19T00:35:09;3.20;;;1.10;;
21621;SDS011;10973;46.706;12.340;2023-09-19T00:37:37;2.47;;;1.10;;
21621;SDS011;10973;46.706;12.340;2023-09-19T00:40:05;1.80;;;1.07;;
21621;SDS011;10973;46.706;12.340;2023-09-19T00:42:35;0.90;;;0.90;;
21621;SDS011;10973;46.706;12.340;2023-09-19T00:45:03;1.17;;;1.17;;
21621;SDS011;10973;46.706;12.340;2023-09-19T00:47:32;2.13;;;1.30;;
21621;SDS011;10973;46.706;12.340;2023-09-19T00:50:00;1.87;;;1.13;;
21621;SDS011;10973;46.706;12.340;2023-09-19T00:52:29;2.90;;;1.70;;
21621;SDS011;10973;46.706;12.340;2023-09-19T00:54:57;1.70;;;1.60;;
21621;SDS011;10973;46.706;12.340;2023-09-19T00:57:25;2.30;;;1.30;;
21621;SDS011;10973;46.706;12.340;2023-09-19T00:59:52;1.53;;;1.43;;
21621;SDS011;10973;46.706;12.340;2023-09-19T01:02:23;1.10;;;1.10;;
21621;SDS011;10973;46.706;12.340;2023-09-19T01:04:52;1.27;;;1.27;;
21621;SDS011;10973;46.706;12.340;2023-09-19T01:07:20;1.10;;;1.10;;
21621;SDS011;10973;46.706;12.340;2023-09-19T01:09:47;1.30;;;1.13;;
21621;SDS011;10973;46.706;12.340;2023-09-19T01:12:16;1.23;;;1.13;;
21621;SDS011;10973;46.706;12.340;2023-09-19T01:14:58;1.10;;;1.00;;
21621;SDS011;10973;46.706;12.340;2023-09-19T01:17:34;1.03;;;1.03;;
21621;SDS011;10973;46.706;12.340;2023-09-19T01:26:26;1.50;;;1.10;;
21621;SDS011;10973;46.706;12.340;2023-09-19T01:29:34;1.60;;;0.90;;
21621;SDS011;10973;46.706;12.340;2023-09-19T01:32:17;1.50;;;1.20;;
21621;SDS011;10973;46.706;12.340;2023-09-19T01:34:54;0.90;;;0.90;;
21621;SDS011;10973;46.706;12.340;2023-09-19T01:37:23;1.63;;;1.20;;
21621;SDS011;10973;46.706;12.340;2023-09-19T01:40:01;2.33;;;1.30;;
21621;SDS011;10973;46.706;12.340;2023-09-19T01:45:19;1.00;;;1.00;;
21621;SDS011;10973;46.706;12.340;2023-09-19T01:51:10;1.90;;;1.10;;
21621;SDS011;10973;46.706;12.340;2023-09-19T01:56:29;1.07;;;1.07;;
21621;SDS011;10973;46.706;12.340;2023-09-19T01:59:16;1.30;;;1.30;;
21621;SDS011;10973;46.706;12.340;2023-09-19T02:01:51;0.83;;;0.83;;
21621;SDS011;10973;46.706;12.340;2023-09-19T02:04:21;1.90;;;0.90;;
21621;SDS011;10973;46.706;12.340;2023-09-19T02:06:48;2.37;;;1.10;;
21621;SDS011;10973;46.706;12.340;2023-09-19T02:09:17;1.67;;;1.00;;
21621;SDS011;10973;46.706;12.340;2023-09-19T02:11:44;1.00;;;1.00;;
21621;SDS011;10973;46.706;12.340;2023-09-19T02:14:12;1.67;;;1.40;;
21621;SDS011;10973;46.706;12.340;2023-09-19T02:16:40;2.03;;;1.83;;
21621;SDS011;10973;46.706;12.340;2023-09-19T02:19:08;4.07;;;3.00;;
21621;SDS011;10973;46.706;12.340;2023-09-19T02:21:36;6.03;;;3.40;;
21621;SDS011;10973;46.706;12.340;2023-09-19T02:24:04;5.47;;;3.57;;
21621;SDS011;10973;46.706;12.340;2023-09-19T02:26:33;3.83;;;3.33;;
21621;SDS011;10973;46.706;12.340;2023-09-19T02:29:00;4.23;;;3.30;;
21621;SDS011;10973;46.706;12.340;2023-09-19T02:31:28;3.87;;;3.33;;
21621;SDS011;10973;46.706;12.340;2023-09-19T02:33:57;3.10;;;2.80;;
21621;SDS011;10973;46.706;12.340;2023-09-19T02:36:25;3.00;;;2.60;;
21621;SDS011;10973;46.706;12.340;2023-09-19T02:38:53;2.53;;;2.33;;
21621;SDS011;10973;46.706;12.340;2023-09-19T02:41:21;2.20;;;2.03;;
21621;SDS011;10973;46.706;12.340;2023-09-19T02:43:49;4.97;;;2.13;;
21621;SDS011;10973;46.706;12.340;2023-09-19T02:46:17;2.37;;;2.23;;
21621;SDS011;10973;46.706;12.340;2023-09-19T02:48:45;3.10;;;2.50;;
21621;SDS011;10973;46.706;12.340;2023-09-19T02:51:13;2.70;;;2.50;;
21621;SDS011;10973;46.706;12.340;2023-09-19T02:53:41;2.60;;;2.40;;
21621;SDS011;10973;46.706;12.340;2023-09-19T02:56:08;2.50;;;2.13;;
21621;SDS011;10973;46.706;12.340;2023-09-19T02:58:36;2.00;;;1.90;;
21621;SDS011;10973;46.706;12.340;2023-09-19T03:05:36;4.43;;;2.27;;
21621;SDS011;10973;46.706;12.340;2023-09-19T03:08:04;2.50;;;2.30;;
21621;SDS011;10973;46.706;12.340;2023-09-19T03:10:32;2.40;;;2.20;;
21621;SDS011;10973;46.706;12.340;2023-09-19T03:13:00;2.20;;;2.00;;
21621;SDS011;10973;46.706;12.340;2023-09-19T03:15:27;2.47;;;2.37;;
21621;SDS011;10973;46.706;12.340;2023-09-19T03:17:55;6.00;;;2.83;;
21621;SDS011;10973;46.706;12.340;2023-09-19T03:20:23;2.90;;;2.30;;
21621;SDS011;10973;46.706;12.340;2023-09-19T03:22:51;2.70;;;2.20;;
21621;SDS011;10973;46.706;12.340;2023-09-19T03:25:19;3.30;;;2.67;;
21621;SDS011;10973;46.706;12.340;2023-09-19T03:27:47;1.80;;;1.70;;
21621;SDS011;10973;46.706;12.340;2023-09-19T03:30:15;2.00;;;1.90;;
21621;SDS011;10973;46.706;12.340;2023-09-19T03:32:46;2.73;;;2.30;;
21621;SDS011;10973;46.706;12.340;2023-09-19T03:35:15;2.80;;;2.40;;
21621;SDS011;10973;46.706;12.340;2023-09-19T03:37:43;2.57;;;2.07;;
21621;SDS011;10973;46.706;12.340;2023-09-19T03:40:11;2.20;;;2.10;;
21621;SDS011;10973;46.706;12.340;2023-09-19T03:42:39;2.37;;;1.90;;
21621;SDS011;10973;46.706;12.340;2023-09-19T03:45:08;2.03;;;1.93;;
21621;SDS011;10973;46.706;12.340;2023-09-19T03:47:36;2.10;;;2.00;;
21621;SDS011;10973;46.706;12.340;2023-09-19T03:50:03;2.33;;;2.13;;
21621;SDS011;10973;46.706;12.340;2023-09-19T03:52:32;2.47;;;2.37;;
21621;SDS011;10973;46.706;12.340;2023-09-19T03:55:00;3.53;;;2.90;;
21621;SDS011;10973;46.706;12.340;2023-09-19T03:57:27;3.30;;;3.00;;
21621;SDS011;10973;46.706;12.340;2023-09-19T03:59:55;4.37;;;3.97;;
21621;SDS011;10973;46.706;12.340;2023-09-19T04:02:22;4.97;;;3.67;;
21621;SDS011;10973;46.706;12.340;2023-09-19T04:04:52;4.80;;;4.10;;
21621;SDS011;10973;46.706;12.340;2023-09-19T04:07:19;5.97;;;4.63;;
21621;SDS011;10973;46.706;12.340;2023-09-19T04:09:47;9.37;;;6.77;;
21621;SDS011;10973;46.706;12.340;2023-09-19T04:12:15;7.80;;;5.73;;
21621;SDS011;10973;46.706;12.340;2023-09-19T04:14:42;4.43;;;3.80;;
21621;SDS011;10973;46.706;12.340;2023-09-19T04:17:10;7.27;;;3.67;;
21621;SDS011;10973;46.706;12.340;2023-09-19T04:19:38;3.57;;;3.27;;
21621;SDS011;10973;46.706;12.340;2023-09-19T04:22:05;4.37;;;3.27;;
21621;SDS011;10973;46.706;12.340;2023-09-19T04:24:33;4.77;;;3.80;;
21621;SDS011;10973;46.706;12.340;2023-09-19T04:27:00;4.03;;;3.63;;
21621;SDS011;10973;46.706;12.340;2023-09-19T04:29:28;4.37;;;3.97;;
21621;SDS011;10973;46.706;12.340;2023-09-19T04:31:56;5.13;;;4.13;;
21621;SDS011;10973;46.706;12.340;2023-09-19T04:34:23;4.53;;;4.13;;
21621;SDS011;10973;46.706;12.340;2023-09-19T04:36:51;5.90;;;4.23;;
21621;SDS011;10973;46.706;12.340;2023-09-19T04:39:18;5.33;;;4.30;;
21621;SDS011;10973;46.706;12.340;2023-09-19T04:41:46;9.03;;;4.30;;
21621;SDS011;10973;46.706;12.340;2023-09-19T04:44:13;5.83;;;4.90;;
21621;SDS011;10973;46.706;12.340;2023-09-19T04:46:40;7.97;;;5.20;;
21621;SDS011;10973;46.706;12.340;2023-09-19T04:49:08;6.80;;;6.07;;
21621;SDS011;10973;46.706;12.340;2023-09-19T04:51:36;9.23;;;6.40;;
21621;SDS011;10973;46.706;12.340;2023-09-19T04:54:03;8.77;;;6.23;;
21621;SDS011;10973;46.706;12.340;2023-09-19T04:56:31;11.03;;;8.50;;
21621;SDS011;10973;46.706;12.340;2023-09-19T04:58:59;5.07;;;4.57;;
21621;SDS011;10973;46.706;12.340;2023-09-19T05:01:26;8.57;;;4.80;;
21621;SDS011;10973;46.706;12.340;2023-09-19T05:03:54;5.00;;;4.57;;
21621;SDS011;10973;46.706;12.340;2023-09-19T05:06:21;5.13;;;3.87;;
21621;SDS011;10973;46.706;12.340;2023-09-19T05:08:49;4.67;;;4.27;;
21621;SDS011;10973;46.706;12.340;2023-09-19T05:11:18;5.87;;;5.17;;
21621;SDS011;10973;46.706;12.340;2023-09-19T05:13:46;6.10;;;5.50;;
21621;SDS011;10973;46.706;12.340;2023-09-19T05:16:13;6.17;;;5.30;;
21621;SDS011;10973;46.706;12.340;2023-09-19T05:18:48;6.77;;;5.33;;
21621;SDS011;10973;46.706;12.340;2023-09-19T05:21:17;5.83;;;5.23;;
21621;SDS011;10973;46.706;12.340;2023-09-19T05:23:44;9.87;;;6.10;;
21621;SDS011;10973;46.706;12.340;2023-09-19T05:26:12;6.30;;;5.70;;
21621;SDS011;10973;46.706;12.340;2023-09-19T05:28:39;6.23;;;5.63;;
21621;SDS011;10973;46.706;12.340;2023-09-19T05:31:07;6.13;;;5.53;;
21621;SDS011;10973;46.706;12.340;2023-09-19T05:33:35;5.60;;;5.10;;
21621;SDS011;10973;46.706;12.340;2023-09-19T05:36:03;7.27;;;5.10;;
21621;SDS011;10973;46.706;12.340;2023-09-19T05:38:31;6.20;;;5.20;;
21621;SDS011;10973;46.706;12.340;2023-09-19T05:40:58;6.13;;;4.93;;
21621;SDS011;10973;46.706;12.340;2023-09-19T05:43:26;5.23;;;4.50;;
21621;SDS011;10973;46.706;12.340;2023-09-19T05:45:53;7.07;;;5.20;;
21621;SDS011;10973;46.706;12.340;2023-09-19T05:48:21;6.07;;;4.63;;
21621;SDS011;10973;46.706;12.340;2023-09-19T05:50:49;5.13;;;4.63;;
21621;SDS011;10973;46.706;12.340;2023-09-19T05:53:16;6.57;;;4.40;;
21621;SDS011;10973;46.706;12.340;2023-09-19T05:55:43;4.83;;;4.33;;
21621;SDS011;10973;46.706;12.340;2023-09-19T05:58:12;6.83;;;3.90;;
21621;SDS011;10973;46.706;12.340;2023-09-19T06:00:39;4.13;;;3.73;;
21621;SDS011;10973;46.706;12.340;2023-09-19T06:03:07;3.70;;;3.40;;
21621;SDS011;10973;46.706;12.340;2023-09-19T06:05:34;3.33;;;2.70;;
21621;SDS011;10973;46.706;12.340;2023-09-19T06:08:02;2.70;;;2.50;;
21621;SDS011;10973;46.706;12.340;2023-09-19T06:10:29;4.20;;;3.30;;
21621;SDS011;10973;46.706;12.340;2023-09-19T06:12:57;9.50;;;6.23;;
21621;SDS011;10973;46.706;12.340;2023-09-19T06:15:24;10.97;;;6.93;;
21621;SDS011;10973;46.706;12.340;2023-09-19T06:17:53;23.27;;;17.17;;
21621;SDS011;10973;46.706;12.340;2023-09-19T06:20:23;15.90;;;11.90;;
21621;SDS011;10973;46.706;12.340;2023-09-19T06:22:54;7.30;;;6.30;;
21621;SDS011;10973;46.706;12.340;2023-09-19T06:25:21;5.50;;;3.23;;
21621;SDS011;10973;46.706;12.340;2023-09-19T06:27:50;5.13;;;3.97;;
21621;SDS011;10973;46.706;12.340;2023-09-19T06:30:20;3.30;;;3.10;;
21621;SDS011;10973;46.706;12.340;2023-09-19T06:32:48;4.00;;;3.60;;
21621;SDS011;10973;46.706;12.340;2023-09-19T06:35:16;2.87;;;2.40;;
21621;SDS011;10973;46.706;12.340;2023-09-19T06:37:44;2.20;;;2.10;;
21621;SDS011;10973;46.706;12.340;2023-09-19T06:40:11;2.97;;;2.30;;
21621;SDS011;10973;46.706;12.340;2023-09-19T06:42:41;2.50;;;2.33;;
21621;SDS011;10973;46.706;12.340;2023-09-19T06:45:10;2.30;;;2.20;;
21621;SDS011;10973;46.706;12.340;2023-09-19T06:47:39;4.67;;;2.30;;
21621;SDS011;10973;46.706;12.340;2023-09-19T06:50:07;2.80;;;2.43;;
21621;SDS011;10973;46.706;12.340;2023-09-19T06:52:34;2.13;;;2.03;;
21621;SDS011;10973;46.706;12.340;2023-09-19T06:55:02;2.10;;;2.00;;
21621;SDS011;10973;46.706;12.340;2023-09-19T06:57:30;1.90;;;1.80;;
21621;SDS011;10973;46.706;12.340;2023-09-19T06:59:57;1.77;;;1.67;;
21621;SDS011;10973;46.706;12.340;2023-09-19T07:02:25;3.20;;;2.23;;
21621;SDS011;10973;46.706;12.340;2023-09-19T07:04:52;2.10;;;2.00;;
21621;SDS011;10973;46.706;12.340;2023-09-19T07:07:20;2.30;;;2.13;;
21621;SDS011;10973;46.706;12.340;2023-09-19T07:09:47;2.70;;;2.50;;
21621;SDS011;10973;46.706;12.340;2023-09-19T07:12:15;2.47;;;2.23;;
21621;SDS011;10973;46.706;12.340;2023-09-19T07:14:42;2.90;;;2.70;;
21621;SDS011;10973;46.706;12.340;2023-09-19T07:17:09;2.40;;;2.30;;
21621;SDS011;10973;46.706;12.340;2023-09-19T07:19:37;2.10;;;1.90;;
21621;SDS011;10973;46.706;12.340;2023-09-19T07:22:05;3.47;;;2.00;;
21621;SDS011;10973;46.706;12.340;2023-09-19T07:24:32;2.20;;;2.03;;
21621;SDS011;10973;46.706;12.340;2023-09-19T07:26:59;1.90;;;1.80;;
21621;SDS011;10973;46.706;12.340;2023-09-19T07:29:27;2.40;;;2.13;;
21621;SDS011;10973;46.706;12.340;2023-09-19T07:31:54;2.00;;;1.90;;
21621;SDS011;10973;46.706;12.340;2023-09-19T07:34:22;5.40;;;2.40;;
21621;SDS011;10973;46.706;12.340;2023-09-19T07:36:49;2.30;;;2.20;;
21621;SDS011;10973;46.706;12.340;2023-09-19T07:39:17;2.00;;;1.90;;
21621;SDS011;10973;46.706;12.340;2023-09-19T07:41:49;2.33;;;2.20;;
21621;SDS011;10973;46.706;12.340;2023-09-19T07:44:17;1.93;;;1.77;;
21621;SDS011;10973;46.706;12.340;2023-09-19T07:46:44;1.80;;;1.70;;
21621;SDS011;10973;46.706;12.340;2023-09-19T07:49:12;1.73;;;1.63;;
21621;SDS011;10973;46.706;12.340;2023-09-19T07:51:40;2.63;;;2.03;;
21621;SDS011;10973;46.706;12.340;2023-09-19T07:54:07;5.37;;;2.00;;
21621;SDS011;10973;46.706;12.340;2023-09-19T07:56:35;2.27;;;1.60;;
21621;SDS011;10973;46.706;12.340;2023-09-19T07:59:02;1.90;;;1.80;;
21621;SDS011;10973;46.706;12.340;2023-09-19T08:01:30;2.10;;;2.00;;
21621;SDS011;10973;46.706;12.340;2023-09-19T08:03:58;1.70;;;1.60;;
21621;SDS011;10973;46.706;12.340;2023-09-19T08:06:25;3.70;;;1.90;;
21621;SDS011;10973;46.706;12.340;2023-09-19T08:08:53;1.87;;;1.70;;
21621;SDS011;10973;46.706;12.340;2023-09-19T08:11:20;2.20;;;1.70;;
21621;SDS011;10973;46.706;12.340;2023-09-19T08:13:48;1.90;;;1.80;;
21621;SDS011;10973;46.706;12.340;2023-09-19T08:16:29;38.23;;;5.23;;
21621;SDS011;10973;46.706;12.340;2023-09-19T08:18:57;9.90;;;2.67;;
21621;SDS011;10973;46.706;12.340;2023-09-19T08:21:27;2.20;;;2.00;;
21621;SDS011;10973;46.706;12.340;2023-09-19T08:23:55;3.80;;;1.70;;
21621;SDS011;10973;46.706;12.340;2023-09-19T08:26:23;1.70;;;1.60;;
21621;SDS011;10973;46.706;12.340;2023-09-19T08:28:50;1.50;;;1.50;;
21621;SDS011;10973;46.706;12.340;2023-09-19T08:31:18;2.10;;;2.00;;
21621;SDS011;10973;46.706;12.340;2023-09-19T08:33:45;3.43;;;1.73;;
21621;SDS011;10973;46.706;12.340;2023-09-19T08:36:13;1.83;;;1.70;;
21621;SDS011;10973;46.706;12.340;2023-09-19T08:38:40;3.37;;;1.80;;
21621;SDS011;10973;46.706;12.340;2023-09-19T08:41:08;1.63;;;1.60;;
21621;SDS011;10973;46.706;12.340;2023-09-19T08:43:35;1.73;;;1.63;;
21621;SDS011;10973;46.706;12.340;2023-09-19T08:52:25;2.50;;;1.47;;
21621;SDS011;10973;46.706;12.340;2023-09-19T08:54:59;1.70;;;1.43;;
21621;SDS011;10973;46.706;12.340;2023-09-19T08:57:33;1.70;;;1.57;;
21621;SDS011;10973;46.706;12.340;2023-09-19T09:00:03;3.80;;;1.50;;
21621;SDS011;10973;46.706;12.340;2023-09-19T09:02:33;1.40;;;1.40;;
21621;SDS011;10973;46.706;12.340;2023-09-19T09:05:01;1.63;;;1.57;;
21621;SDS011;10973;46.706;12.340;2023-09-19T09:07:32;3.47;;;1.60;;
21621;SDS011;10973;46.706;12.340;2023-09-19T09:10:02;2.27;;;1.50;;
21621;SDS011;10973;46.706;12.340;2023-09-19T09:12:30;2.00;;;1.50;;
21621;SDS011;10973;46.706;12.340;2023-09-19T09:14:57;2.50;;;1.80;;
21621;SDS011;10973;46.706;12.340;2023-09-19T09:17:26;1.33;;;1.30;;
21621;SDS011;10973;46.706;12.340;2023-09-19T09:19:53;1.50;;;1.40;;
21621;SDS011;10973;46.706;12.340;2023-09-19T09:22:22;3.37;;;1.63;;
21621;SDS011;10973;46.706;12.340;2023-09-19T09:24:59;2.40;;;1.60;;
21621;SDS011;10973;46.706;12.340;2023-09-19T09:27:26;4.80;;;2.10;;
21621;SDS011;10973;46.706;12.340;2023-09-19T09:29:54;3.97;;;1.83;;
21621;SDS011;10973;46.706;12.340;2023-09-19T09:32:25;3.90;;;1.70;;
21621;SDS011;10973;46.706;12.340;2023-09-19T09:34:58;1.60;;;1.50;;
21621;SDS011;10973;46.706;12.340;2023-09-19T09:37:28;1.70;;;1.60;;
21621;SDS011;10973;46.706;12.340;2023-09-19T09:40:00;1.67;;;1.60;;
21621;SDS011;10973;46.706;12.340;2023-09-19T09:42:30;3.10;;;1.53;;
21621;SDS011;10973;46.706;12.340;2023-09-19T09:45:15;1.70;;;1.60;;
21621;SDS011;10973;46.706;12.340;2023-09-19T09:47:46;8.33;;;1.97;;
21621;SDS011;10973;46.706;12.340;2023-09-19T09:52:56;2.40;;;1.60;;
21621;SDS011;10973;46.706;12.340;2023-09-19T09:55:24;1.70;;;1.60;;
21621;SDS011;10973;46.706;12.340;2023-09-19T10:00:53;1.80;;;1.50;;
21621;SDS011;10973;46.706;12.340;2023-09-19T10:03:32;3.63;;;1.53;;
21621;SDS011;10973;46.706;12.340;2023-09-19T10:06:06;6.77;;;1.90;;
21621;SDS011;10973;46.706;12.340;2023-09-19T10:08:36;2.10;;;1.50;;
21621;SDS011;10973;46.706;12.340;2023-09-19T10:11:17;1.70;;;1.60;;
21621;SDS011;10973;46.706;12.340;2023-09-19T10:13:45;1.73;;;1.63;;
21621;SDS011;10973;46.706;12.340;2023-09-19T10:16:14;3.93;;;1.60;;
21621;SDS011;10973;46.706;12.340;2023-09-19T10:18:44;2.23;;;2.13;;
21621;SDS011;10973;46.706;12.340;2023-09-19T10:21:17;2.77;;;1.73;;
21621;SDS011;10973;46.706;12.340;2023-09-19T10:23:45;1.57;;;1.50;;
21621;SDS011;10973;46.706;12.340;2023-09-19T10:26:15;1.63;;;1.57;;
21621;SDS011;10973;46.706;12.340;2023-09-19T10:28:46;2.43;;;1.83;;
21621;SDS011;10973;46.706;12.340;2023-09-19T10:31:20;1.53;;;1.53;;
21621;SDS011;10973;46.706;12.340;2023-09-19T10:33:51;1.95;;;1.50;;
21621;SDS011;10973;46.706;12.340;2023-09-19T10:36:24;1.95;;;1.70;;
21621;SDS011;10973;46.706;12.340;2023-09-19T10:38:53;1.95;;;1.50;;
21621;SDS011;10973;46.706;12.340;2023-09-19T10:41:25;2.10;;;1.55;;
21621;SDS011;10973;46.706;12.340;2023-09-19T10:43:55;1.60;;;1.50;;
21621;SDS011;10973;46.706;12.340;2023-09-19T10:46:25;2.55;;;1.92;;
21621;SDS011;10973;46.706;12.340;2023-09-19T10:48:53;1.55;;;1.45;;
21621;SDS011;10973;46.706;12.340;2023-09-19T10:51:25;1.65;;;1.60;;
21621;SDS011;10973;46.706;12.340;2023-09-19T10:54:06;1.55;;;1.55;;
21621;SDS011;10973;46.706;12.340;2023-09-19T10:56:42;1.92;;;1.33;;
21621;SDS011;10973;46.706;12.340;2023-09-19T10:59:17;1.30;;;1.30;;
21621;SDS011;10973;46.706;12.340;2023-09-19T11:01:47;2.05;;;1.40;;
21621;SDS011;10973;46.706;12.340;2023-09-19T11:04:23;1.80;;;1.70;;
21621;SDS011;10973;46.706;12.340;2023-09-19T11:07:02;1.63;;;1.52;;
21621;SDS011;10973;46.706;12.340;2023-09-19T11:09:44;1.42;;;1.42;;
21621;SDS011;10973;46.706;12.340;2023-09-19T11:14:58;2.08;;;1.58;;
21621;SDS011;10973;46.706;12.340;2023-09-19T11:30:33;1.73;;;1.48;;
21621;SDS011;10973;46.706;12.340;2023-09-19T11:33:16;1.27;;;1.27;;
21621;SDS011;10973;46.706;12.340;2023-09-19T11:35:59;1.77;;;1.50;;
21621;SDS011;10973;46.706;12.340;2023-09-19T11:46:29;2.10;;;1.20;;
21621;SDS011;10973;46.706;12.340;2023-09-19T11:49:08;1.70;;;1.60;;
21621;SDS011;10973;46.706;12.340;2023-09-19T11:51:40;1.40;;;1.38;;
21621;SDS011;10973;46.706;12.340;2023-09-19T11:54:13;1.73;;;1.63;;
21621;SDS011;10973;46.706;12.340;2023-09-19T11:56:41;1.33;;;1.25;;
21621;SDS011;10973;46.706;12.340;2023-09-19T11:59:19;1.85;;;1.40;;
21621;SDS011;10973;46.706;12.340;2023-09-19T12:01:52;1.63;;;1.52;;
21621;SDS011;10973;46.706;12.340;2023-09-19T12:04:34;1.77;;;1.30;;
21621;SDS011;10973;46.706;12.340;2023-09-19T12:07:08;1.45;;;1.35;;
21621;SDS011;10973;46.706;12.340;2023-09-19T12:09:49;1.90;;;1.80;;
21621;SDS011;10973;46.706;12.340;2023-09-19T12:12:31;1.63;;;1.52;;
21621;SDS011;10973;46.706;12.340;2023-09-19T12:14:58;1.70;;;1.60;;
21621;SDS011;10973;46.706;12.340;2023-09-19T12:17:36;1.40;;;1.40;;
21621;SDS011;10973;46.706;12.340;2023-09-19T12:20:04;1.60;;;1.50;;
21621;SDS011;10973;46.706;12.340;2023-09-19T12:22:54;1.55;;;1.50;;
21621;SDS011;10973;46.706;12.340;2023-09-19T12:25:20;1.65;;;1.40;;
21621;SDS011;10973;46.706;12.340;2023-09-19T12:27:48;4.15;;;1.70;;
21621;SDS011;10973;46.706;12.340;2023-09-19T12:30:17;1.98;;;1.77;;
21621;SDS011;10973;46.706;12.340;2023-09-19T12:32:48;1.95;;;1.30;;
21621;SDS011;10973;46.706;12.340;2023-09-19T12:35:29;2.00;;;1.40;;
21621;SDS011;10973;46.706;12.340;2023-09-19T12:38:00;1.13;;;1.13;;
21621;SDS011;10973;46.706;12.340;2023-09-19T12:40:29;1.30;;;1.20;;
21621;SDS011;10973;46.706;12.340;2023-09-19T12:42:57;1.60;;;1.45;;
21621;SDS011;10973;46.706;12.340;2023-09-19T12:45:29;1.35;;;1.30;;
21621;SDS011;10973;46.706;12.340;2023-09-19T12:51:05;1.65;;;1.55;;
21621;SDS011;10973;46.706;12.340;2023-09-19T12:53:36;1.55;;;1.45;;
21621;SDS011;10973;46.706;12.340;2023-09-19T12:56:09;2.25;;;1.30;;
21621;SDS011;10973;46.706;12.340;2023-09-19T12:58:58;3.28;;;1.27;;
21621;SDS011;10973;46.706;12.340;2023-09-19T13:01:26;2.42;;;1.50;;
21621;SDS011;10973;46.706;12.340;2023-09-19T13:06:46;1.60;;;1.50;;
21621;SDS011;10973;46.706;12.340;2023-09-19T13:09:19;1.10;;;1.10;;
21621;SDS011;10973;46.706;12.340;2023-09-19T13:11:48;1.40;;;1.30;;
21621;SDS011;10973;46.706;12.340;2023-09-19T13:14:20;1.25;;;1.25;;
21621;SDS011;10973;46.706;12.340;2023-09-19T13:19:40;2.55;;;1.63;;
21621;SDS011;10973;46.706;12.340;2023-09-19T13:25:18;1.20;;;1.20;;
21621;SDS011;10973;46.706;12.340;2023-09-19T13:27:48;1.90;;;1.65;;
21621;SDS011;10973;46.706;12.340;2023-09-19T13:30:20;1.40;;;1.30;;
21621;SDS011;10973;46.706;12.340;2023-09-19T13:32:50;1.70;;;1.30;;
21621;SDS011;10973;46.706;12.340;2023-09-19T13:35:18;1.10;;;1.10;;
21621;SDS011;10973;46.706;12.340;2023-09-19T13:37:46;1.30;;;1.30;;
21621;SDS011;10973;46.706;12.340;2023-09-19T13:40:14;1.58;;;1.40;;
21621;SDS011;10973;46.706;12.340;2023-09-19T13:42:42;1.05;;;1.05;;
21621;SDS011;10973;46.706;12.340;2023-09-19T13:45:10;1.63;;;1.48;;
21621;SDS011;10973;46.706;12.340;2023-09-19T13:47:38;4.40;;;1.40;;
21621;SDS011;10973;46.706;12.340;2023-09-19T13:50:06;1.10;;;1.10;;
21621;SDS011;10973;46.706;12.340;2023-09-19T13:52:35;1.95;;;1.10;;
21621;SDS011;10973;46.706;12.340;2023-09-19T13:55:02;1.38;;;1.27;;
21621;SDS011;10973;46.706;12.340;2023-09-19T13:57:30;1.40;;;1.20;;
21621;SDS011;10973;46.706;12.340;2023-09-19T13:59:58;1.67;;;1.58;;
21621;SDS011;10973;46.706;12.340;2023-09-19T14:02:25;1.40;;;1.40;;
21621;SDS011;10973;46.706;12.340;2023-09-19T14:04:53;1.05;;;1.05;;
21621;SDS011;10973;46.706;12.340;2023-09-19T14:07:21;1.10;;;1.10;;
21621;SDS011;10973;46.706;12.340;2023-09-19T14:09:49;1.33;;;1.08;;
21621;SDS011;10973;46.706;12.340;2023-09-19T14:12:17;1.40;;;1.30;;
21621;SDS011;10973;46.706;12.340;2023-09-19T14:14:44;5.05;;;1.25;;
21621;SDS011;10973;46.706;12.340;2023-09-19T14:17:12;3.70;;;1.30;;
21621;SDS011;10973;46.706;12.340;2023-09-19T14:19:40;3.45;;;1.65;;
21621;SDS011;10973;46.706;12.340;2023-09-19T14:22:11;2.28;;;1.60;;
21621;SDS011;10973;46.706;12.340;2023-09-19T14:24:39;1.10;;;1.10;;
21621;SDS011;10973;46.706;12.340;2023-09-19T14:27:06;3.08;;;1.40;;
21621;SDS011;10973;46.706;12.340;2023-09-19T14:29:34;1.08;;;1.08;;
21621;SDS011;10973;46.706;12.340;2023-09-19T14:32:02;1.48;;;1.38;;
21621;SDS011;10973;46.706;12.340;2023-09-19T14:34:30;1.92;;;1.40;;
21621;SDS011;10973;46.706;12.340;2023-09-19T14:36:57;3.55;;;2.20;;
21621;SDS011;10973;46.706;12.340;2023-09-19T14:39:25;1.52;;;1.42;;
21621;SDS011;10973;46.706;12.340;2023-09-19T14:41:53;1.20;;;1.20;;
21621;SDS011;10973;46.706;12.340;2023-09-19T14:44:20;1.42;;;1.40;;
21621;SDS011;10973;46.706;12.340;2023-09-19T14:46:48;1.60;;;1.50;;
21621;SDS011;10973;46.706;12.340;2023-09-19T14:49:16;1.40;;;1.30;;
21621;SDS011;10973;46.706;12.340;2023-09-19T14:51:44;1.50;;;1.40;;
21621;SDS011;10973;46.706;12.340;2023-09-19T14:54:11;1.58;;;1.48;;
21621;SDS011;10973;46.706;12.340;2023-09-19T14:56:39;1.50;;;1.30;;
21621;SDS011;10973;46.706;12.340;2023-09-19T14:59:10;1.35;;;1.25;;
21621;SDS011;10973;46.706;12.340;2023-09-19T15:05:44;2.35;;;1.50;;
21621;SDS011;10973;46.706;12.340;2023-09-19T15:08:13;34.33;;;4.00;;
21621;SDS011;10973;46.706;12.340;2023-09-19T15:10:48;1.45;;;1.30;;
21621;SDS011;10973;46.706;12.340;2023-09-19T15:13:18;2.28;;;1.42;;
21621;SDS011;10973;46.706;12.340;2023-09-19T15:15:46;2.83;;;1.63;;
21621;SDS011;10973;46.706;12.340;2023-09-19T15:18:14;3.50;;;1.60;;
21621;SDS011;10973;46.706;12.340;2023-09-19T15:20:43;1.60;;;1.50;;
21621;SDS011;10973;46.706;12.340;2023-09-19T15:23:11;5.70;;;1.90;;
21621;SDS011;10973;46.706;12.340;2023-09-19T15:25:39;1.67;;;1.58;;
21621;SDS011;10973;46.706;12.340;2023-09-19T15:28:14;1.63;;;1.48;;
21621;SDS011;10973;46.706;12.340;2023-09-19T15:30:43;2.47;;;1.63;;
21621;SDS011;10973;46.706;12.340;2023-09-19T15:33:12;2.03;;;1.83;;
21621;SDS011;10973;46.706;12.340;2023-09-19T15:35:40;2.25;;;1.60;;
21621;SDS011;10973;46.706;12.340;2023-09-19T15:38:09;1.95;;;1.85;;
21621;SDS011;10973;46.706;12.340;2023-09-19T15:40:45;3.20;;;1.60;;
21621;SDS011;10973;46.706;12.340;2023-09-19T15:43:14;25.15;;;3.83;;
21621;SDS011;10973;46.706;12.340;2023-09-19T15:45:42;3.40;;;1.75;;
21621;SDS011;10973;46.706;12.340;2023-09-19T15:48:10;3.30;;;1.70;;
21621;SDS011;10973;46.706;12.340;2023-09-19T15:50:42;4.35;;;1.70;;
21621;SDS011;10973;46.706;12.340;2023-09-19T15:53:15;3.10;;;2.03;;
21621;SDS011;10973;46.706;12.340;2023-09-19T15:55:48;2.22;;;2.00;;
21621;SDS011;10973;46.706;12.340;2023-09-19T15:58:18;3.38;;;2.08;;